sensor_id;sensor_type;location;lat;lon;timestamp;P1;durP1;ratioP1;P2;durP2;ratioP2
6394;SDS011;3230;42.588;23.358;2023-03-01T00:01:16;2.87;;;2.53;;
6394;SDS011;3230;42.588;23.358;2023-03-01T00:03:42;2.33;;;2.13;;
6394;SDS011;3230;42.588;23.358;2023-03-01T00:06:07;2.87;;;2.43;;
6394;SDS011;3230;42.588;23.358;2023-03-01T00:08:33;3.53;;;2.60;;
6394;SDS011;3230;42.588;23.358;2023-03-01T00:13:27;3.92;;;2.83;;
6394;SDS011;3230;42.588;23.358;2023-03-01T00:15:52;3.03;;;2.73;;
6394;SDS011;3230;42.588;23.358;2023-03-01T00:18:17;3.50;;;2.27;;
6394;SDS011;3230;42.588;23.358;2023-03-01T00:20:48;2.73;;;2.37;;
6394;SDS011;3230;42.588;23.358;2023-03-01T00:23:14;2.40;;;2.20;;
6394;SDS011;3230;42.588;23.358;2023-03-01T00:25:42;3.03;;;2.30;;
6394;SDS011;3230;42.588;23.358;2023-03-01T00:28:08;2.75;;;2.47;;
6394;SDS011;3230;42.588;23.358;2023-03-01T00:30:33;2.67;;;2.47;;
6394;SDS011;3230;42.588;23.358;2023-03-01T00:32:58;3.33;;;2.20;;
6394;SDS011;3230;42.588;23.358;2023-03-01T00:35:23;3.60;;;2.70;;
6394;SDS011;3230;42.588;23.358;2023-03-01T00:37:49;2.80;;;2.50;;
6394;SDS011;3230;42.588;23.358;2023-03-01T00:40:22;3.15;;;2.60;;
6394;SDS011;3230;42.588;23.358;2023-03-01T00:42:47;2.37;;;2.17;;
6394;SDS011;3230;42.588;23.358;2023-03-01T00:45:13;2.50;;;2.30;;
6394;SDS011;3230;42.588;23.358;2023-03-01T00:47:38;2.40;;;2.20;;
6394;SDS011;3230;42.588;23.358;2023-03-01T00:50:03;2.43;;;2.17;;
6394;SDS011;3230;42.588;23.358;2023-03-01T00:52:29;1.77;;;1.67;;
6394;SDS011;3230;42.588;23.358;2023-03-01T00:54:54;2.40;;;2.20;;
6394;SDS011;3230;42.588;23.358;2023-03-01T00:57:19;4.70;;;3.53;;
6394;SDS011;3230;42.588;23.358;2023-03-01T00:59:45;2.70;;;2.20;;
6394;SDS011;3230;42.588;23.358;2023-03-01T01:02:10;1.80;;;1.70;;
6394;SDS011;3230;42.588;23.358;2023-03-01T01:04:35;3.07;;;2.30;;
6394;SDS011;3230;42.588;23.358;2023-03-01T01:07:01;3.97;;;3.40;;
6394;SDS011;3230;42.588;23.358;2023-03-01T01:09:26;2.50;;;2.30;;
6394;SDS011;3230;42.588;23.358;2023-03-01T01:11:51;3.40;;;2.63;;
6394;SDS011;3230;42.588;23.358;2023-03-01T01:14:17;3.87;;;2.77;;
6394;SDS011;3230;42.588;23.358;2023-03-01T01:16:43;5.57;;;3.95;;
6394;SDS011;3230;42.588;23.358;2023-03-01T01:19:09;2.60;;;2.40;;
6394;SDS011;3230;42.588;23.358;2023-03-01T01:21:34;1.67;;;1.57;;
6394;SDS011;3230;42.588;23.358;2023-03-01T01:23:59;1.80;;;1.70;;
6394;SDS011;3230;42.588;23.358;2023-03-01T01:26:26;1.53;;;1.43;;
6394;SDS011;3230;42.588;23.358;2023-03-01T01:28:52;1.80;;;1.70;;
6394;SDS011;3230;42.588;23.358;2023-03-01T01:31:18;2.50;;;2.30;;
6394;SDS011;3230;42.588;23.358;2023-03-01T01:33:43;2.80;;;2.27;;
6394;SDS011;3230;42.588;23.358;2023-03-01T01:36:09;5.33;;;3.70;;
6394;SDS011;3230;42.588;23.358;2023-03-01T01:38:35;1.50;;;1.40;;
6394;SDS011;3230;42.588;23.358;2023-03-01T01:41:00;1.93;;;1.73;;
6394;SDS011;3230;42.588;23.358;2023-03-01T01:43:28;1.30;;;1.20;;
6394;SDS011;3230;42.588;23.358;2023-03-01T01:45:57;1.50;;;1.40;;
6394;SDS011;3230;42.588;23.358;2023-03-01T01:48:25;1.80;;;1.70;;
6394;SDS011;3230;42.588;23.358;2023-03-01T01:51:05;1.90;;;1.70;;
6394;SDS011;3230;42.588;23.358;2023-03-01T01:53:31;1.20;;;1.15;;
6394;SDS011;3230;42.588;23.358;2023-03-01T01:55:58;1.67;;;1.50;;
6394;SDS011;3230;42.588;23.358;2023-03-01T01:58:25;1.70;;;1.60;;
6394;SDS011;3230;42.588;23.358;2023-03-01T02:00:52;2.45;;;1.75;;
6394;SDS011;3230;42.588;23.358;2023-03-01T02:03:19;1.70;;;1.60;;
6394;SDS011;3230;42.588;23.358;2023-03-01T02:08:11;1.57;;;1.47;;
6394;SDS011;3230;42.588;23.358;2023-03-01T02:10:37;1.50;;;1.40;;
6394;SDS011;3230;42.588;23.358;2023-03-01T02:13:03;1.60;;;1.50;;
6394;SDS011;3230;42.588;23.358;2023-03-01T02:15:35;1.50;;;1.40;;
6394;SDS011;3230;42.588;23.358;2023-03-01T02:18:02;1.45;;;1.35;;
6394;SDS011;3230;42.588;23.358;2023-03-01T02:23:02;1.60;;;1.50;;
6394;SDS011;3230;42.588;23.358;2023-03-01T02:30:27;2.15;;;1.90;;
6394;SDS011;3230;42.588;23.358;2023-03-01T02:32:54;1.50;;;1.40;;
6394;SDS011;3230;42.588;23.358;2023-03-01T02:35:21;1.75;;;1.65;;
6394;SDS011;3230;42.588;23.358;2023-03-01T02:37:47;2.10;;;1.93;;
6394;SDS011;3230;42.588;23.358;2023-03-01T02:40:17;2.10;;;1.80;;
6394;SDS011;3230;42.588;23.358;2023-03-01T02:42:45;2.15;;;2.05;;
6394;SDS011;3230;42.588;23.358;2023-03-01T02:45:12;2.72;;;2.53;;
6394;SDS011;3230;42.588;23.358;2023-03-01T02:47:37;3.13;;;2.50;;
6394;SDS011;3230;42.588;23.358;2023-03-01T02:50:02;2.53;;;2.33;;
6394;SDS011;3230;42.588;23.358;2023-03-01T02:52:52;3.35;;;3.03;;
6394;SDS011;3230;42.588;23.358;2023-03-01T02:55:18;2.92;;;2.63;;
6394;SDS011;3230;42.588;23.358;2023-03-01T02:57:45;3.47;;;2.87;;
6394;SDS011;3230;42.588;23.358;2023-03-01T03:00:15;4.05;;;3.10;;
6394;SDS011;3230;42.588;23.358;2023-03-01T03:02:46;3.45;;;3.08;;
6394;SDS011;3230;42.588;23.358;2023-03-01T03:05:13;5.28;;;3.47;;
6394;SDS011;3230;42.588;23.358;2023-03-01T03:07:40;3.88;;;3.38;;
6394;SDS011;3230;42.588;23.358;2023-03-01T03:10:06;5.60;;;3.88;;
6394;SDS011;3230;42.588;23.358;2023-03-01T03:12:32;15.88;;;7.38;;
6394;SDS011;3230;42.588;23.358;2023-03-01T03:14:57;8.47;;;5.70;;
6394;SDS011;3230;42.588;23.358;2023-03-01T03:17:23;11.70;;;8.40;;
6394;SDS011;3230;42.588;23.358;2023-03-01T03:19:48;3.80;;;3.20;;
6394;SDS011;3230;42.588;23.358;2023-03-01T03:22:13;34.10;;;15.50;;
6394;SDS011;3230;42.588;23.358;2023-03-01T03:24:39;11.57;;;6.63;;
6394;SDS011;3230;42.588;23.358;2023-03-01T03:27:04;19.70;;;10.60;;
6394;SDS011;3230;42.588;23.358;2023-03-01T03:29:30;7.80;;;5.47;;
6394;SDS011;3230;42.588;23.358;2023-03-01T03:31:55;7.27;;;4.30;;
6394;SDS011;3230;42.588;23.358;2023-03-01T03:34:21;6.87;;;4.23;;
6394;SDS011;3230;42.588;23.358;2023-03-01T03:36:46;8.17;;;5.70;;
6394;SDS011;3230;42.588;23.358;2023-03-01T03:39:11;9.13;;;5.53;;
6394;SDS011;3230;42.588;23.358;2023-03-01T03:41:37;7.50;;;4.90;;
6394;SDS011;3230;42.588;23.358;2023-03-01T03:44:02;6.90;;;5.33;;
6394;SDS011;3230;42.588;23.358;2023-03-01T03:46:27;6.10;;;5.10;;
6394;SDS011;3230;42.588;23.358;2023-03-01T03:48:52;5.80;;;4.73;;
6394;SDS011;3230;42.588;23.358;2023-03-01T03:51:18;6.23;;;4.50;;
6394;SDS011;3230;42.588;23.358;2023-03-01T03:53:44;2.40;;;2.20;;
6394;SDS011;3230;42.588;23.358;2023-03-01T03:56:09;2.92;;;2.63;;
6394;SDS011;3230;42.588;23.358;2023-03-01T03:58:35;2.83;;;2.50;;
6394;SDS011;3230;42.588;23.358;2023-03-01T04:01:00;2.37;;;2.17;;
6394;SDS011;3230;42.588;23.358;2023-03-01T04:03:27;3.93;;;2.20;;
6394;SDS011;3230;42.588;23.358;2023-03-01T04:05:59;2.60;;;2.35;;
6394;SDS011;3230;42.588;23.358;2023-03-01T04:08:25;3.00;;;2.70;;
6394;SDS011;3230;42.588;23.358;2023-03-01T04:10:51;8.17;;;5.30;;
6394;SDS011;3230;42.588;23.358;2023-03-01T04:13:18;9.50;;;6.03;;
6394;SDS011;3230;42.588;23.358;2023-03-01T04:15:50;11.30;;;6.30;;
6394;SDS011;3230;42.588;23.358;2023-03-01T04:18:16;3.35;;;2.33;;
6394;SDS011;3230;42.588;23.358;2023-03-01T04:20:41;2.40;;;2.10;;
6394;SDS011;3230;42.588;23.358;2023-03-01T04:23:08;3.40;;;2.60;;
6394;SDS011;3230;42.588;23.358;2023-03-01T04:28:39;6.18;;;3.25;;
6394;SDS011;3230;42.588;23.358;2023-03-01T04:31:11;2.45;;;2.25;;
6394;SDS011;3230;42.588;23.358;2023-03-01T04:33:51;2.35;;;2.00;;
6394;SDS011;3230;42.588;23.358;2023-03-01T04:36:17;4.38;;;3.28;;
6394;SDS011;3230;42.588;23.358;2023-03-01T04:38:42;2.20;;;2.00;;
6394;SDS011;3230;42.588;23.358;2023-03-01T04:41:12;3.40;;;2.60;;
6394;SDS011;3230;42.588;23.358;2023-03-01T04:43:38;3.80;;;3.13;;
6394;SDS011;3230;42.588;23.358;2023-03-01T04:46:04;2.63;;;2.20;;
6394;SDS011;3230;42.588;23.358;2023-03-01T04:48:31;2.25;;;1.80;;
6394;SDS011;3230;42.588;23.358;2023-03-01T04:50:57;4.70;;;3.43;;
6394;SDS011;3230;42.588;23.358;2023-03-01T04:53:23;3.47;;;2.15;;
6394;SDS011;3230;42.588;23.358;2023-03-01T04:55:48;4.77;;;3.00;;
6394;SDS011;3230;42.588;23.358;2023-03-01T04:58:13;3.67;;;2.83;;
6394;SDS011;3230;42.588;23.358;2023-03-01T05:00:38;4.73;;;3.20;;
6394;SDS011;3230;42.588;23.358;2023-03-01T05:03:04;3.60;;;3.13;;
6394;SDS011;3230;42.588;23.358;2023-03-01T05:05:33;2.60;;;2.30;;
6394;SDS011;3230;42.588;23.358;2023-03-01T05:08:00;2.63;;;2.10;;
6394;SDS011;3230;42.588;23.358;2023-03-01T05:10:27;1.95;;;1.73;;
6394;SDS011;3230;42.588;23.358;2023-03-01T05:12:56;2.97;;;2.10;;
6394;SDS011;3230;42.588;23.358;2023-03-01T05:15:28;6.55;;;3.08;;
6394;SDS011;3230;42.588;23.358;2023-03-01T05:17:54;2.28;;;2.08;;
6394;SDS011;3230;42.588;23.358;2023-03-01T05:20:20;2.40;;;2.10;;
6394;SDS011;3230;42.588;23.358;2023-03-01T05:22:48;8.40;;;3.25;;
6394;SDS011;3230;42.588;23.358;2023-03-01T05:25:13;3.23;;;2.63;;
6394;SDS011;3230;42.588;23.358;2023-03-01T05:27:39;5.70;;;3.90;;
6394;SDS011;3230;42.588;23.358;2023-03-01T05:30:04;5.03;;;3.10;;
6394;SDS011;3230;42.588;23.358;2023-03-01T05:32:39;4.25;;;3.50;;
6394;SDS011;3230;42.588;23.358;2023-03-01T05:35:04;5.70;;;4.00;;
6394;SDS011;3230;42.588;23.358;2023-03-01T05:37:30;2.58;;;1.85;;
6394;SDS011;3230;42.588;23.358;2023-03-01T05:39:55;1.70;;;1.60;;
6394;SDS011;3230;42.588;23.358;2023-03-01T05:42:21;4.23;;;2.10;;
6394;SDS011;3230;42.588;23.358;2023-03-01T05:44:46;2.10;;;1.90;;
6394;SDS011;3230;42.588;23.358;2023-03-01T05:47:11;7.00;;;3.67;;
6394;SDS011;3230;42.588;23.358;2023-03-01T05:49:36;2.23;;;1.90;;
6394;SDS011;3230;42.588;23.358;2023-03-01T05:52:01;2.60;;;1.40;;
6394;SDS011;3230;42.588;23.358;2023-03-01T05:54:27;5.60;;;3.50;;
6394;SDS011;3230;42.588;23.358;2023-03-01T05:56:52;2.40;;;2.20;;
6394;SDS011;3230;42.588;23.358;2023-03-01T05:59:17;2.50;;;2.13;;
6394;SDS011;3230;42.588;23.358;2023-03-01T06:01:43;10.73;;;5.37;;
6394;SDS011;3230;42.588;23.358;2023-03-01T06:04:08;3.13;;;2.50;;
6394;SDS011;3230;42.588;23.358;2023-03-01T06:06:34;2.17;;;1.57;;
6394;SDS011;3230;42.588;23.358;2023-03-01T06:09:02;4.50;;;3.00;;
6394;SDS011;3230;42.588;23.358;2023-03-01T06:11:27;8.07;;;4.93;;
6394;SDS011;3230;42.588;23.358;2023-03-01T06:13:53;24.50;;;13.07;;
6394;SDS011;3230;42.588;23.358;2023-03-01T06:16:18;11.80;;;6.97;;
6394;SDS011;3230;42.588;23.358;2023-03-01T06:18:43;1.40;;;1.30;;
6394;SDS011;3230;42.588;23.358;2023-03-01T06:21:08;1.97;;;1.87;;
6394;SDS011;3230;42.588;23.358;2023-03-01T06:23:34;1.70;;;1.60;;
6394;SDS011;3230;42.588;23.358;2023-03-01T06:25:59;3.70;;;2.93;;
6394;SDS011;3230;42.588;23.358;2023-03-01T06:28:25;1.97;;;1.87;;
6394;SDS011;3230;42.588;23.358;2023-03-01T06:30:50;2.10;;;1.80;;
6394;SDS011;3230;42.588;23.358;2023-03-01T06:33:16;3.05;;;2.60;;
6394;SDS011;3230;42.588;23.358;2023-03-01T06:35:43;4.60;;;1.70;;
6394;SDS011;3230;42.588;23.358;2023-03-01T06:38:08;2.37;;;2.17;;
6394;SDS011;3230;42.588;23.358;2023-03-01T06:40:34;4.87;;;3.40;;
6394;SDS011;3230;42.588;23.358;2023-03-01T06:43:00;3.80;;;2.90;;
6394;SDS011;3230;42.588;23.358;2023-03-01T06:45:25;8.63;;;4.87;;
6394;SDS011;3230;42.588;23.358;2023-03-01T06:47:51;8.43;;;4.20;;
6394;SDS011;3230;42.588;23.358;2023-03-01T06:50:16;4.97;;;3.40;;
6394;SDS011;3230;42.588;23.358;2023-03-01T06:52:42;3.40;;;2.57;;
6394;SDS011;3230;42.588;23.358;2023-03-01T06:55:09;2.08;;;1.92;;
6394;SDS011;3230;42.588;23.358;2023-03-01T06:57:34;4.03;;;3.40;;
6394;SDS011;3230;42.588;23.358;2023-03-01T07:00:00;3.40;;;2.10;;
6394;SDS011;3230;42.588;23.358;2023-03-01T07:02:25;5.83;;;3.30;;
6394;SDS011;3230;42.588;23.358;2023-03-01T07:04:50;4.07;;;2.97;;
6394;SDS011;3230;42.588;23.358;2023-03-01T07:07:16;6.37;;;4.07;;
6394;SDS011;3230;42.588;23.358;2023-03-01T07:09:43;5.85;;;3.55;;
6394;SDS011;3230;42.588;23.358;2023-03-01T07:12:08;2.30;;;2.10;;
6394;SDS011;3230;42.588;23.358;2023-03-01T07:14:33;3.77;;;2.40;;
6394;SDS011;3230;42.588;23.358;2023-03-01T07:16:58;2.37;;;2.17;;
6394;SDS011;3230;42.588;23.358;2023-03-01T07:19:23;3.30;;;2.03;;
6394;SDS011;3230;42.588;23.358;2023-03-01T07:21:49;3.00;;;2.27;;
6394;SDS011;3230;42.588;23.358;2023-03-01T07:24:14;3.50;;;2.20;;
6394;SDS011;3230;42.588;23.358;2023-03-01T07:26:39;3.50;;;2.10;;
6394;SDS011;3230;42.588;23.358;2023-03-01T07:29:06;2.70;;;2.20;;
6394;SDS011;3230;42.588;23.358;2023-03-01T07:31:31;2.45;;;2.25;;
6394;SDS011;3230;42.588;23.358;2023-03-01T07:33:56;6.33;;;1.70;;
6394;SDS011;3230;42.588;23.358;2023-03-01T07:36:22;2.33;;;2.00;;
6394;SDS011;3230;42.588;23.358;2023-03-01T07:38:47;3.33;;;2.40;;
6394;SDS011;3230;42.588;23.358;2023-03-01T07:41:13;3.30;;;2.30;;
6394;SDS011;3230;42.588;23.358;2023-03-01T07:43:38;4.23;;;3.07;;
6394;SDS011;3230;42.588;23.358;2023-03-01T07:46:03;4.37;;;3.20;;
6394;SDS011;3230;42.588;23.358;2023-03-01T07:48:29;3.90;;;3.00;;
6394;SDS011;3230;42.588;23.358;2023-03-01T07:50:57;4.13;;;3.10;;
6394;SDS011;3230;42.588;23.358;2023-03-01T07:53:22;4.93;;;2.60;;
6394;SDS011;3230;42.588;23.358;2023-03-01T07:55:48;2.53;;;2.33;;
6394;SDS011;3230;42.588;23.358;2023-03-01T07:58:13;4.47;;;3.40;;
6394;SDS011;3230;42.588;23.358;2023-03-01T08:00:38;5.13;;;3.10;;
6394;SDS011;3230;42.588;23.358;2023-03-01T08:03:03;4.60;;;3.53;;
6394;SDS011;3230;42.588;23.358;2023-03-01T08:05:29;5.50;;;3.77;;
6394;SDS011;3230;42.588;23.358;2023-03-01T08:07:54;5.20;;;3.50;;
6394;SDS011;3230;42.588;23.358;2023-03-01T08:10:19;4.50;;;3.80;;
6394;SDS011;3230;42.588;23.358;2023-03-01T08:12:45;7.00;;;2.83;;
6394;SDS011;3230;42.588;23.358;2023-03-01T08:15:10;2.20;;;2.00;;
6394;SDS011;3230;42.588;23.358;2023-03-01T08:17:36;2.00;;;1.80;;
6394;SDS011;3230;42.588;23.358;2023-03-01T08:20:01;1.50;;;1.40;;
6394;SDS011;3230;42.588;23.358;2023-03-01T08:22:28;1.90;;;1.80;;
6394;SDS011;3230;42.588;23.358;2023-03-01T08:24:53;1.90;;;1.80;;
6394;SDS011;3230;42.588;23.358;2023-03-01T08:27:20;2.95;;;1.80;;
6394;SDS011;3230;42.588;23.358;2023-03-01T08:29:45;3.60;;;2.47;;
6394;SDS011;3230;42.588;23.358;2023-03-01T08:32:11;5.30;;;3.80;;
6394;SDS011;3230;42.588;23.358;2023-03-01T08:34:36;6.60;;;3.80;;
6394;SDS011;3230;42.588;23.358;2023-03-01T08:37:01;6.00;;;4.23;;
6394;SDS011;3230;42.588;23.358;2023-03-01T08:39:27;5.93;;;3.80;;
6394;SDS011;3230;42.588;23.358;2023-03-01T08:41:52;3.13;;;2.80;;
6394;SDS011;3230;42.588;23.358;2023-03-01T08:44:17;7.77;;;5.53;;
6394;SDS011;3230;42.588;23.358;2023-03-01T08:46:43;7.63;;;5.27;;
6394;SDS011;3230;42.588;23.358;2023-03-01T08:49:10;6.40;;;4.00;;
6394;SDS011;3230;42.588;23.358;2023-03-01T08:51:36;5.43;;;3.33;;
6394;SDS011;3230;42.588;23.358;2023-03-01T08:54:05;2.43;;;2.13;;
6394;SDS011;3230;42.588;23.358;2023-03-01T08:56:31;6.78;;;3.83;;
6394;SDS011;3230;42.588;23.358;2023-03-01T08:58:56;7.33;;;5.13;;
6394;SDS011;3230;42.588;23.358;2023-03-01T09:01:21;6.37;;;4.30;;
6394;SDS011;3230;42.588;23.358;2023-03-01T09:03:47;6.70;;;3.77;;
6394;SDS011;3230;42.588;23.358;2023-03-01T09:06:12;4.80;;;3.00;;
6394;SDS011;3230;42.588;23.358;2023-03-01T09:08:39;2.42;;;2.22;;
6394;SDS011;3230;42.588;23.358;2023-03-01T09:11:06;3.33;;;2.67;;
6394;SDS011;3230;42.588;23.358;2023-03-01T09:13:32;6.30;;;3.50;;
6394;SDS011;3230;42.588;23.358;2023-03-01T09:15:57;3.17;;;1.90;;
6394;SDS011;3230;42.588;23.358;2023-03-01T09:18:23;6.30;;;4.00;;
6394;SDS011;3230;42.588;23.358;2023-03-01T09:20:48;4.97;;;2.43;;
6394;SDS011;3230;42.588;23.358;2023-03-01T09:23:13;7.53;;;3.80;;
6394;SDS011;3230;42.588;23.358;2023-03-01T09:25:39;4.73;;;2.73;;
6394;SDS011;3230;42.588;23.358;2023-03-01T09:28:04;4.37;;;3.33;;
6394;SDS011;3230;42.588;23.358;2023-03-01T09:30:29;4.70;;;2.97;;
6394;SDS011;3230;42.588;23.358;2023-03-01T09:32:56;7.10;;;4.10;;
6394;SDS011;3230;42.588;23.358;2023-03-01T09:35:21;5.93;;;3.50;;
6394;SDS011;3230;42.588;23.358;2023-03-01T09:37:47;3.08;;;2.65;;
6394;SDS011;3230;42.588;23.358;2023-03-01T09:40:16;3.00;;;2.70;;
6394;SDS011;3230;42.588;23.358;2023-03-01T09:45:27;3.60;;;2.90;;
6394;SDS011;3230;42.588;23.358;2023-03-01T09:47:55;3.85;;;3.08;;
6394;SDS011;3230;42.588;23.358;2023-03-01T09:50:21;4.87;;;3.27;;
6394;SDS011;3230;42.588;23.358;2023-03-01T09:55:15;4.93;;;3.57;;
6394;SDS011;3230;42.588;23.358;2023-03-01T09:57:49;3.45;;;3.00;;
6394;SDS011;3230;42.588;23.358;2023-03-01T10:07:58;4.90;;;3.35;;
6394;SDS011;3230;42.588;23.358;2023-03-01T10:13:29;5.15;;;3.53;;
6394;SDS011;3230;42.588;23.358;2023-03-01T10:15:57;5.43;;;4.38;;
6394;SDS011;3230;42.588;23.358;2023-03-01T10:18:27;8.50;;;4.50;;
6394;SDS011;3230;42.588;23.358;2023-03-01T10:21:01;9.63;;;5.60;;
6394;SDS011;3230;42.588;23.358;2023-03-01T10:23:27;7.07;;;4.55;;
6394;SDS011;3230;42.588;23.358;2023-03-01T10:31:11;6.82;;;3.75;;
6394;SDS011;3230;42.588;23.358;2023-03-01T10:33:37;5.03;;;3.78;;
6394;SDS011;3230;42.588;23.358;2023-03-01T10:36:04;3.08;;;2.55;;
6394;SDS011;3230;42.588;23.358;2023-03-01T10:38:30;2.87;;;2.33;;
6394;SDS011;3230;42.588;23.358;2023-03-01T10:40:57;7.35;;;3.55;;
6394;SDS011;3230;42.588;23.358;2023-03-01T10:46:23;5.72;;;3.40;;
6394;SDS011;3230;42.588;23.358;2023-03-01T10:51:32;6.05;;;3.92;;
6394;SDS011;3230;42.588;23.358;2023-03-01T10:53:58;4.37;;;3.17;;
6394;SDS011;3230;42.588;23.358;2023-03-01T10:56:23;5.50;;;3.13;;
6394;SDS011;3230;42.588;23.358;2023-03-01T10:59:00;5.73;;;4.00;;
6394;SDS011;3230;42.588;23.358;2023-03-01T11:01:26;2.70;;;2.25;;
6394;SDS011;3230;42.588;23.358;2023-03-01T11:06:30;3.63;;;2.60;;
6394;SDS011;3230;42.588;23.358;2023-03-01T11:08:55;5.40;;;2.53;;
6394;SDS011;3230;42.588;23.358;2023-03-01T11:11:31;3.40;;;2.23;;
6394;SDS011;3230;42.588;23.358;2023-03-01T11:16:41;2.90;;;2.10;;
6394;SDS011;3230;42.588;23.358;2023-03-01T11:21:35;4.25;;;2.80;;
6394;SDS011;3230;42.588;23.358;2023-03-01T11:24:02;3.50;;;2.70;;
6394;SDS011;3230;42.588;23.358;2023-03-01T11:26:28;2.20;;;2.00;;
6394;SDS011;3230;42.588;23.358;2023-03-01T11:28:56;2.53;;;2.30;;
6394;SDS011;3230;42.588;23.358;2023-03-01T11:31:23;2.95;;;2.13;;
6394;SDS011;3230;42.588;23.358;2023-03-01T11:33:57;4.00;;;3.00;;
6394;SDS011;3230;42.588;23.358;2023-03-01T11:39:03;4.60;;;3.47;;
6394;SDS011;3230;42.588;23.358;2023-03-01T11:41:30;7.50;;;4.78;;
6394;SDS011;3230;42.588;23.358;2023-03-01T11:44:03;3.80;;;3.25;;
6394;SDS011;3230;42.588;23.358;2023-03-01T11:49:18;3.35;;;3.05;;
6394;SDS011;3230;42.588;23.358;2023-03-01T11:54:39;7.23;;;3.53;;
6394;SDS011;3230;42.588;23.358;2023-03-01T11:57:04;4.95;;;3.35;;
6394;SDS011;3230;42.588;23.358;2023-03-01T12:05:18;4.80;;;3.42;;
6394;SDS011;3230;42.588;23.358;2023-03-01T12:10:38;6.30;;;3.58;;
6394;SDS011;3230;42.588;23.358;2023-03-01T12:16:06;4.55;;;3.17;;
6394;SDS011;3230;42.588;23.358;2023-03-01T12:21:18;4.65;;;3.60;;
6394;SDS011;3230;42.588;23.358;2023-03-01T12:23:50;6.10;;;4.40;;
6394;SDS011;3230;42.588;23.358;2023-03-01T12:26:23;2.75;;;2.25;;
6394;SDS011;3230;42.588;23.358;2023-03-01T12:50:17;3.20;;;2.38;;
6394;SDS011;3230;42.588;23.358;2023-03-01T12:55:18;3.97;;;2.97;;
6394;SDS011;3230;42.588;23.358;2023-03-01T12:57:49;4.65;;;3.25;;
6394;SDS011;3230;42.588;23.358;2023-03-01T13:08:08;4.73;;;3.20;;
6394;SDS011;3230;42.588;23.358;2023-03-01T13:10:34;3.42;;;2.72;;
6394;SDS011;3230;42.588;23.358;2023-03-01T13:15:38;12.15;;;6.25;;
6394;SDS011;3230;42.588;23.358;2023-03-01T13:26:03;12.37;;;6.63;;
6394;SDS011;3230;42.588;23.358;2023-03-01T13:33:48;9.73;;;4.80;;
6394;SDS011;3230;42.588;23.358;2023-03-01T13:44:13;6.70;;;4.30;;
6394;SDS011;3230;42.588;23.358;2023-03-01T13:46:43;6.23;;;3.47;;
6394;SDS011;3230;42.588;23.358;2023-03-01T13:49:09;4.77;;;3.77;;
6394;SDS011;3230;42.588;23.358;2023-03-01T13:51:38;4.53;;;3.30;;
6394;SDS011;3230;42.588;23.358;2023-03-01T13:54:03;9.73;;;4.90;;
6394;SDS011;3230;42.588;23.358;2023-03-01T13:56:33;7.53;;;4.20;;
6394;SDS011;3230;42.588;23.358;2023-03-01T13:59:02;6.63;;;2.73;;
6394;SDS011;3230;42.588;23.358;2023-03-01T14:03:54;4.27;;;2.93;;
6394;SDS011;3230;42.588;23.358;2023-03-01T14:06:22;4.77;;;4.27;;
6394;SDS011;3230;42.588;23.358;2023-03-01T14:08:48;4.43;;;3.42;;
6394;SDS011;3230;42.588;23.358;2023-03-01T14:11:33;4.38;;;3.35;;
6394;SDS011;3230;42.588;23.358;2023-03-01T14:16:58;4.65;;;3.38;;
6394;SDS011;3230;42.588;23.358;2023-03-01T14:19:26;4.80;;;3.00;;
6394;SDS011;3230;42.588;23.358;2023-03-01T14:24:37;6.57;;;4.60;;
6394;SDS011;3230;42.588;23.358;2023-03-01T14:27:03;6.00;;;4.63;;
6394;SDS011;3230;42.588;23.358;2023-03-01T14:29:35;8.33;;;5.63;;
6394;SDS011;3230;42.588;23.358;2023-03-01T14:32:23;6.45;;;4.97;;
6394;SDS011;3230;42.588;23.358;2023-03-01T14:34:47;7.13;;;5.32;;
6394;SDS011;3230;42.588;23.358;2023-03-01T14:39:44;2.88;;;2.35;;
6394;SDS011;3230;42.588;23.358;2023-03-01T14:42:09;8.33;;;3.90;;
6394;SDS011;3230;42.588;23.358;2023-03-01T14:44:34;10.00;;;5.80;;
6394;SDS011;3230;42.588;23.358;2023-03-01T14:47:02;5.63;;;3.58;;
6394;SDS011;3230;42.588;23.358;2023-03-01T14:49:29;8.35;;;4.40;;
6394;SDS011;3230;42.588;23.358;2023-03-01T14:54:23;13.97;;;4.30;;
6394;SDS011;3230;42.588;23.358;2023-03-01T14:56:49;10.80;;;6.25;;
6394;SDS011;3230;42.588;23.358;2023-03-01T14:59:15;7.88;;;5.25;;
6394;SDS011;3230;42.588;23.358;2023-03-01T15:01:41;6.07;;;4.00;;
6394;SDS011;3230;42.588;23.358;2023-03-01T15:04:08;5.70;;;3.07;;
6394;SDS011;3230;42.588;23.358;2023-03-01T15:06:36;6.00;;;4.63;;
6394;SDS011;3230;42.588;23.358;2023-03-01T15:09:02;8.43;;;5.03;;
6394;SDS011;3230;42.588;23.358;2023-03-01T15:11:29;13.23;;;6.90;;
6394;SDS011;3230;42.588;23.358;2023-03-01T15:13:55;15.93;;;9.32;;
6394;SDS011;3230;42.588;23.358;2023-03-01T15:16:21;20.47;;;9.10;;
6394;SDS011;3230;42.588;23.358;2023-03-01T15:18:52;20.98;;;9.95;;
6394;SDS011;3230;42.588;23.358;2023-03-01T15:21:20;18.35;;;10.55;;
6394;SDS011;3230;42.588;23.358;2023-03-01T15:23:58;31.45;;;15.25;;
6394;SDS011;3230;42.588;23.358;2023-03-01T15:26:29;13.38;;;6.80;;
6394;SDS011;3230;42.588;23.358;2023-03-01T15:28:55;11.98;;;6.13;;
6394;SDS011;3230;42.588;23.358;2023-03-01T15:31:36;21.00;;;10.15;;
6394;SDS011;3230;42.588;23.358;2023-03-01T15:34:48;18.90;;;8.63;;
6394;SDS011;3230;42.588;23.358;2023-03-01T15:36:49;12.60;;;6.65;;
6394;SDS011;3230;42.588;23.358;2023-03-01T15:41:49;7.18;;;5.07;;
6394;SDS011;3230;42.588;23.358;2023-03-01T15:44:23;10.37;;;6.27;;
6394;SDS011;3230;42.588;23.358;2023-03-01T15:46:49;14.27;;;8.30;;
6394;SDS011;3230;42.588;23.358;2023-03-01T15:49:58;14.90;;;7.67;;
6394;SDS011;3230;42.588;23.358;2023-03-01T15:52:04;15.25;;;6.88;;
6394;SDS011;3230;42.588;23.358;2023-03-01T15:54:30;10.20;;;5.07;;
6394;SDS011;3230;42.588;23.358;2023-03-01T15:56:55;12.03;;;6.70;;
6394;SDS011;3230;42.588;23.358;2023-03-01T15:59:21;12.87;;;7.80;;
6394;SDS011;3230;42.588;23.358;2023-03-01T16:01:47;9.77;;;5.93;;
6394;SDS011;3230;42.588;23.358;2023-03-01T16:04:14;5.40;;;4.15;;
6394;SDS011;3230;42.588;23.358;2023-03-01T16:06:45;6.57;;;4.10;;
6394;SDS011;3230;42.588;23.358;2023-03-01T16:09:12;8.48;;;5.75;;
6394;SDS011;3230;42.588;23.358;2023-03-01T16:11:37;31.37;;;12.73;;
6394;SDS011;3230;42.588;23.358;2023-03-01T16:14:04;11.43;;;5.80;;
6394;SDS011;3230;42.588;23.358;2023-03-01T16:16:30;6.27;;;4.13;;
6394;SDS011;3230;42.588;23.358;2023-03-01T16:18:55;10.93;;;4.80;;
6394;SDS011;3230;42.588;23.358;2023-03-01T16:21:22;13.67;;;6.63;;
6394;SDS011;3230;42.588;23.358;2023-03-01T16:23:48;11.65;;;5.28;;
6394;SDS011;3230;42.588;23.358;2023-03-01T16:26:13;6.40;;;3.37;;
6394;SDS011;3230;42.588;23.358;2023-03-01T16:28:40;5.37;;;3.20;;
6394;SDS011;3230;42.588;23.358;2023-03-01T16:31:05;10.02;;;5.40;;
6394;SDS011;3230;42.588;23.358;2023-03-01T16:33:30;5.30;;;3.87;;
6394;SDS011;3230;42.588;23.358;2023-03-01T16:35:56;10.83;;;5.30;;
6394;SDS011;3230;42.588;23.358;2023-03-01T16:38:21;11.27;;;6.40;;
6394;SDS011;3230;42.588;23.358;2023-03-01T16:40:48;6.57;;;3.90;;
6394;SDS011;3230;42.588;23.358;2023-03-01T16:43:14;8.98;;;4.32;;
6394;SDS011;3230;42.588;23.358;2023-03-01T16:45:39;6.67;;;4.37;;
6394;SDS011;3230;42.588;23.358;2023-03-01T16:48:05;9.15;;;4.55;;
6394;SDS011;3230;42.588;23.358;2023-03-01T16:50:31;10.87;;;5.80;;
6394;SDS011;3230;42.588;23.358;2023-03-01T16:52:56;12.77;;;6.80;;
6394;SDS011;3230;42.588;23.358;2023-03-01T16:55:22;7.00;;;4.63;;
6394;SDS011;3230;42.588;23.358;2023-03-01T16:57:48;7.30;;;3.75;;
6394;SDS011;3230;42.588;23.358;2023-03-01T17:00:13;9.83;;;5.27;;
6394;SDS011;3230;42.588;23.358;2023-03-01T17:02:39;15.17;;;7.07;;
6394;SDS011;3230;42.588;23.358;2023-03-01T17:05:05;12.73;;;6.18;;
6394;SDS011;3230;42.588;23.358;2023-03-01T17:07:32;6.40;;;4.10;;
6394;SDS011;3230;42.588;23.358;2023-03-01T17:10:00;14.38;;;6.80;;
6394;SDS011;3230;42.588;23.358;2023-03-01T17:12:26;9.90;;;4.83;;
6394;SDS011;3230;42.588;23.358;2023-03-01T17:14:52;14.60;;;8.65;;
6394;SDS011;3230;42.588;23.358;2023-03-01T17:17:17;17.23;;;8.23;;
6394;SDS011;3230;42.588;23.358;2023-03-01T17:19:42;16.00;;;8.87;;
6394;SDS011;3230;42.588;23.358;2023-03-01T17:22:09;4.43;;;3.13;;